Time;durP1;ratioP1;P1;durP2;ratioP2;P2;SDS_P1;SDS_P2;PMS_P1;PMS_P2;Temp;Humidity;BMP_temperature;BMP_pressure;BME280_temperature;BME280_humidity;BME280_pressure;Samples;Min_cycle;Max_cycle;Signal;HPM_P1;HPM_P2
2023/05/14 00:00:48;;;;;;;1.30;1.20;;;;;10.30;95967.00;;;;5033320;28;20193;-56
2023/05/14 00:03:17;;;;;;;1.53;1.43;;;;;10.20;95970.00;;;;5033214;28;20224;-55
2023/05/14 00:05:44;;;;;;;1.20;1.20;;;;;10.20;95967.00;;;;5033300;28;20201;-55
2023/05/14 00:08:12;;;;;;;1.53;1.43;;;;;10.20;95963.00;;;;5033599;28;20199;-55
2023/05/14 00:10:39;;;;;;;2.23;1.80;;;;;10.30;95963.00;;;;5033229;28;20192;-55
2023/05/14 00:13:06;;;;;;;2.40;2.20;;;;;10.30;95963.00;;;;5033278;28;20212;-55
2023/05/14 00:15:34;;;;;;;0.63;0.63;;;;;10.30;95966.00;;;;5033204;28;20193;-55
2023/05/14 00:18:01;;;;;;;1.87;1.77;;;;;10.30;95958.00;;;;5033199;28;20201;-55
2023/05/14 00:20:30;;;;;;;1.40;1.40;;;;;10.30;95960.00;;;;5033170;28;20660;-55
2023/05/14 00:22:57;;;;;;;1.50;1.40;;;;;10.30;95953.00;;;;5033618;28;20220;-56
2023/05/14 00:25:25;;;;;;;2.80;2.53;;;;;10.30;95955.00;;;;5033313;28;20698;-56
2023/05/14 00:27:52;;;;;;;1.27;1.27;;;;;10.20;95957.00;;;;5033104;28;20192;-56
2023/05/14 00:30:20;;;;;;;2.10;2.00;;;;;10.20;95953.00;;;;5033133;28;20200;-56
2023/05/14 00:32:47;;;;;;;2.63;1.93;;;;;10.10;95946.00;;;;5032966;28;20204;-56
2023/05/14 00:35:17;;;;;;;2.63;1.47;;;;;10.10;95951.00;;;;5033302;28;20192;-56
2023/05/14 00:37:46;;;;;;;1.57;1.47;;;;;9.90;95950.00;;;;5033030;28;20198;-56
2023/05/14 00:40:14;;;;;;;1.47;1.37;;;;;9.80;95941.00;;;;5033594;28;20189;-56
2023/05/14 00:42:41;;;;;;;0.70;0.70;;;;;9.80;95944.00;;;;5031627;28;20699;-56
2023/05/14 00:45:09;;;;;;;1.40;1.40;;;;;9.90;95933.00;;;;5031689;28;20234;-56
2023/05/14 00:47:38;;;;;;;1.10;1.10;;;;;9.90;95931.00;;;;5033145;28;20196;-56
2023/05/14 00:50:06;;;;;;;1.83;1.73;;;;;10.00;95930.00;;;;5032838;28;20193;-56
2023/05/14 00:52:33;;;;;;;2.63;2.43;;;;;10.00;95920.00;;;;5033028;28;20286;-54
2023/05/14 00:55:05;;;;;;;2.03;1.93;;;;;10.00;95919.00;;;;5032884;28;20276;-54
2023/05/14 00:57:32;;;;;;;2.30;2.10;;;;;10.00;95924.00;;;;5032889;28;20236;-55
2023/05/14 01:00:00;;;;;;;1.37;1.30;;;;;10.00;95916.00;;;;5032804;28;20197;-55
2023/05/14 01:02:27;;;;;;;2.20;2.10;;;;;10.00;95917.00;;;;5033775;28;20220;-54
2023/05/14 01:04:55;;;;;;;1.33;1.33;;;;;10.10;95913.00;;;;5036781;28;20227;-54
2023/05/14 01:07:30;;;;;;;2.67;1.70;;;;;10.00;95914.00;;;;5036663;28;20247;-55
2023/05/14 01:10:03;;;;;;;1.90;1.67;;;;;10.00;95910.00;;;;5037029;28;20184;-55
2023/05/14 01:12:36;;;;;;;1.30;1.30;;;;;10.10;95899.00;;;;5036649;28;20208;-55
2023/05/14 01:15:10;;;;;;;2.10;1.77;;;;;10.00;95900.00;;;;5036397;28;20235;-55
2023/05/14 01:17:43;;;;;;;5.87;4.73;;;;;10.00;95907.00;;;;5035076;28;20569;-55
2023/05/14 01:20:11;;;;;;;2.20;2.10;;;;;10.00;95908.00;;;;5036560;28;20196;-55
2023/05/14 01:22:40;;;;;;;5.30;3.93;;;;;9.90;95896.00;;;;5036191;28;20224;-55
2023/05/14 01:25:08;;;;;;;1.90;1.80;;;;;9.90;95901.00;;;;5036271;28;20217;-55
2023/05/14 01:27:42;;;;;;;1.37;1.33;;;;;9.90;95906.00;;;;5036140;28;20251;-54
2023/05/14 01:30:16;;;;;;;1.33;1.27;;;;;10.00;95906.00;;;;5036108;28;20196;-55
2023/05/14 01:32:48;;;;;;;2.30;1.70;;;;;10.00;95903.00;;;;5036216;28;20204;-55
2023/05/14 01:35:16;;;;;;;1.57;1.53;;;;;9.90;95895.00;;;;5036273;28;20203;-55
2023/05/14 01:37:47;;;;;;;1.67;1.57;;;;;10.00;95902.00;;;;5036284;28;20207;-55
2023/05/14 01:40:14;;;;;;;1.60;1.43;;;;;9.90;95905.00;;;;5036041;28;20181;-56
2023/05/14 01:42:42;;;;;;;1.00;1.00;;;;;10.00;95908.00;;;;5036162;28;20217;-55
2023/05/14 01:45:10;;;;;;;1.20;1.10;;;;;9.90;95901.00;;;;5036549;28;20217;-55
2023/05/14 01:47:38;;;;;;;1.10;1.10;;;;;9.70;95906.00;;;;5035908;28;20201;-55
2023/05/14 01:50:06;;;;;;;1.47;1.47;;;;;9.70;95908.00;;;;5035788;28;20215;-55
2023/05/14 01:52:33;;;;;;;1.10;1.10;;;;;9.70;95913.00;;;;5035680;28;20223;-55
2023/05/14 01:55:03;;;;;;;1.00;1.00;;;;;9.70;95910.00;;;;5035908;28;20201;-55
2023/05/14 01:57:31;;;;;;;1.80;1.70;;;;;9.80;95902.00;;;;5035881;28;20223;-55
2023/05/14 01:59:58;;;;;;;1.57;1.47;;;;;9.80;95906.00;;;;5035858;28;20197;-56
2023/05/14 02:02:26;;;;;;;1.67;1.57;;;;;9.80;95912.00;;;;5053877;22;20635;-59
2023/05/14 02:04:53;;;;;;;1.57;1.47;;;;;9.90;95896.00;;;;5055374;28;20220;-59
2023/05/14 02:07:20;;;;;;;1.20;1.20;;;;;9.90;95897.00;;;;5055360;28;20667;-59
2023/05/14 02:09:48;;;;;;;1.20;1.20;;;;;9.80;95891.00;;;;5055832;28;20250;-59
2023/05/14 02:12:16;;;;;;;1.40;1.40;;;;;9.90;95901.00;;;;5055457;28;20570;-59
2023/05/14 02:14:44;;;;;;;1.00;1.00;;;;;9.80;95893.00;;;;5054732;28;20726;-59
2023/05/14 02:17:14;;;;;;;1.43;1.43;;;;;9.80;95908.00;;;;5055437;28;20204;-58
2023/05/14 02:19:42;;;;;;;1.40;1.30;;;;;9.80;95900.00;;;;5055094;28;20192;-58
2023/05/14 02:22:09;;;;;;;0.97;0.97;;;;;9.90;95902.00;;;;5055065;28;20211;-58
2023/05/14 02:24:36;;;;;;;0.77;0.77;;;;;9.80;95896.00;;;;5055468;28;20227;-58
2023/05/14 02:27:05;;;;;;;1.00;1.00;;;;;9.70;95901.00;;;;5055060;28;20192;-59
2023/05/14 02:29:33;;;;;;;1.07;1.07;;;;;9.70;95894.00;;;;5054913;28;20246;-59
2023/05/14 02:32:01;;;;;;;0.80;0.80;;;;;9.70;95899.00;;;;5055132;28;20196;-59
2023/05/14 02:34:28;;;;;;;0.90;0.90;;;;;9.70;95898.00;;;;5054899;28;20532;-59
2023/05/14 02:36:55;;;;;;;0.80;0.80;;;;;9.70;95905.00;;;;5055028;28;20555;-59
2023/05/14 02:39:23;;;;;;;1.20;1.10;;;;;9.90;95900.00;;;;5054742;28;20674;-59
2023/05/14 02:41:50;;;;;;;2.23;1.67;;;;;9.90;95902.00;;;;5053378;28;20658;-59
2023/05/14 02:44:18;;;;;;;1.47;1.37;;;;;9.80;95899.00;;;;5054814;28;20192;-59
2023/05/14 02:46:46;;;;;;;1.47;1.37;;;;;9.70;95904.00;;;;5054754;28;20686;-59
2023/05/14 02:49:14;;;;;;;1.27;1.27;;;;;9.60;95899.00;;;;5054590;28;20203;-58
2023/05/14 02:51:41;;;;;;;1.33;1.33;;;;;9.60;95894.00;;;;5053280;28;20290;-59
2023/05/14 02:54:08;;;;;;;1.10;1.10;;;;;9.50;95897.00;;;;5054455;28;20199;-59
2023/05/14 02:56:36;;;;;;;0.97;0.87;;;;;9.60;95899.00;;;;5054330;28;20675;-59
2023/05/14 02:59:04;;;;;;;1.13;1.13;;;;;9.60;95897.00;;;;5054370;28;20214;-59
2023/05/14 03:01:31;;;;;;;1.63;1.53;;;;;9.60;95896.00;;;;5053057;28;20338;-59
2023/05/14 03:04:00;;;;;;;1.23;1.23;;;;;9.60;95899.00;;;;5054125;28;20269;-59
2023/05/14 03:06:27;;;;;;;0.70;0.70;;;;;9.60;95895.00;;;;5054378;28;20216;-59
2023/05/14 03:08:54;;;;;;;0.70;0.70;;;;;9.50;95894.00;;;;5054123;28;20196;-59
2023/05/14 03:11:22;;;;;;;1.60;1.50;;;;;9.50;95898.00;;;;5054408;28;20619;-59
2023/05/14 03:13:49;;;;;;;1.63;1.53;;;;;9.50;95889.00;;;;5054048;28;20212;-59
2023/05/14 03:16:16;;;;;;;1.13;1.13;;;;;9.40;95888.00;;;;5054032;28;20246;-59
2023/05/14 03:18:44;;;;;;;1.93;1.80;;;;;9.40;95890.00;;;;5053978;28;20204;-59
2023/05/14 03:21:13;;;;;;;1.00;1.00;;;;;9.40;95889.00;;;;5053932;28;20187;-59
2023/05/14 03:23:40;;;;;;;2.47;1.87;;;;;9.40;95894.00;;;;5053924;28;20278;-59
2023/05/14 03:26:08;;;;;;;1.70;1.60;;;;;9.30;95888.00;;;;5053052;28;20215;-59
2023/05/14 03:28:35;;;;;;;1.40;1.30;;;;;9.30;95895.00;;;;5054067;28;20254;-59
2023/05/14 03:31:02;;;;;;;0.90;0.90;;;;;9.40;95892.00;;;;5053928;28;20603;-59
2023/05/14 03:33:30;;;;;;;1.77;1.67;;;;;9.50;95894.00;;;;5053998;28;20220;-59
2023/05/14 03:35:57;;;;;;;1.37;1.30;;;;;9.50;95886.00;;;;5053726;28;20207;-59
2023/05/14 03:38:26;;;;;;;1.27;1.00;;;;;9.60;95894.00;;;;5053648;28;20188;-59
2023/05/14 03:40:53;;;;;;;2.00;1.90;;;;;9.60;95886.00;;;;5054149;28;20188;-59
2023/05/14 03:43:20;;;;;;;2.00;1.10;;;;;9.60;95885.00;;;;5053418;28;20212;-59
2023/05/14 03:45:51;;;;;;;1.50;1.40;;;;;9.60;95887.00;;;;5053463;28;20211;-59
2023/05/14 03:48:18;;;;;;;1.67;1.57;;;;;9.60;95886.00;;;;5053610;28;20188;-59
2023/05/14 03:50:46;;;;;;;1.47;1.30;;;;;9.60;95879.00;;;;5053458;28;20689;-59
2023/05/14 03:53:13;;;;;;;0.97;0.97;;;;;9.60;95878.00;;;;5053559;28;20631;-59
2023/05/14 03:55:42;;;;;;;0.93;0.93;;;;;9.60;95885.00;;;;5053568;28;20188;-59
2023/05/14 03:58:12;;;;;;;2.73;1.13;;;;;9.70;95887.00;;;;5053353;28;20203;-60
2023/05/14 04:00:40;;;;;;;1.80;1.70;;;;;9.70;95888.00;;;;5053761;28;20180;-59
2023/05/14 04:03:08;;;;;;;1.17;1.17;;;;;9.80;95884.00;;;;5053202;28;20223;-59
2023/05/14 04:05:35;;;;;;;0.97;0.97;;;;;9.80;95884.00;;;;5053462;28;20223;-59
2023/05/14 04:08:03;;;;;;;1.80;1.60;;;;;9.80;95877.00;;;;5053231;28;20232;-59
2023/05/14 04:10:30;;;;;;;1.47;1.37;;;;;9.90;95882.00;;;;5053520;28;20659;-58
2023/05/14 04:12:59;;;;;;;2.27;2.10;;;;;9.90;95877.00;;;;5053109;28;20215;-59
2023/05/14 04:15:27;;;;;;;1.20;1.20;;;;;9.90;95886.00;;;;5053436;28;20189;-59
2023/05/14 04:17:54;;;;;;;1.03;1.00;;;;;10.00;95880.00;;;;5053064;28;20199;-59
2023/05/14 04:20:21;;;;;;;1.43;1.33;;;;;9.90;95875.00;;;;5051860;28;20204;-59
2023/05/14 04:22:49;;;;;;;1.17;1.17;;;;;9.90;95875.00;;;;5052941;28;20215;-59
2023/05/14 04:25:17;;;;;;;0.60;0.60;;;;;9.90;95884.00;;;;5051680;28;20219;-59
2023/05/14 04:27:44;;;;;;;0.90;0.90;;;;;9.90;95883.00;;;;5053014;28;20218;-58
2023/05/14 04:30:13;;;;;;;0.93;0.93;;;;;9.90;95881.00;;;;5051718;28;20199;-59
2023/05/14 04:32:41;;;;;;;1.73;1.63;;;;;9.90;95881.00;;;;5053056;28;20215;-59
2023/05/14 04:35:09;;;;;;;1.27;1.17;;;;;9.90;95890.00;;;;5052974;28;20227;-59
2023/05/14 04:37:37;;;;;;;1.03;1.03;;;;;10.00;95885.00;;;;5056010;28;20226;-59
2023/05/14 04:40:05;;;;;;;1.17;1.17;;;;;10.00;95898.00;;;;5056975;28;20233;-59
2023/05/14 04:42:32;;;;;;;1.07;1.07;;;;;9.90;95893.00;;;;5056920;28;20217;-59
2023/05/14 04:45:00;;;;;;;0.83;0.83;;;;;9.90;95896.00;;;;5057069;28;20200;-59
2023/05/14 04:47:29;;;;;;;1.57;1.47;;;;;9.90;95891.00;;;;5057566;28;20553;-59
2023/05/14 04:49:57;;;;;;;1.73;1.63;;;;;10.00;95895.00;;;;5056326;28;20272;-59
2023/05/14 04:52:25;;;;;;;1.30;1.30;;;;;10.00;95892.00;;;;5057104;28;20247;-59
2023/05/14 04:54:52;;;;;;;1.77;1.60;;;;;9.90;95885.00;;;;5056974;28;20533;-59
2023/05/14 04:57:20;;;;;;;1.67;1.57;;;;;9.90;95886.00;;;;5057516;28;20242;-59
2023/05/14 04:59:47;;;;;;;0.87;0.83;;;;;10.00;95892.00;;;;5056932;28;20188;-59
2023/05/14 05:02:14;;;;;;;1.43;1.43;;;;;10.00;95898.00;;;;5056364;28;20219;-59
2023/05/14 05:04:43;;;;;;;1.50;1.40;;;;;10.10;95888.00;;;;5056581;28;20184;-59
2023/05/14 05:07:11;;;;;;;0.93;0.93;;;;;10.20;95886.00;;;;5056390;28;20204;-59
2023/05/14 05:09:39;;;;;;;1.63;1.57;;;;;10.20;95892.00;;;;5056470;28;20557;-59
2023/05/14 05:12:07;;;;;;;2.47;1.27;;;;;10.20;95881.00;;;;5056325;28;20725;-59
2023/05/14 05:14:34;;;;;;;1.10;1.10;;;;;10.30;95880.00;;;;5056593;28;20192;-59
2023/05/14 05:17:02;;;;;;;2.17;1.93;;;;;10.30;95889.00;;;;5056808;28;20197;-59
2023/05/14 05:19:30;;;;;;;1.03;1.03;;;;;10.40;95884.00;;;;5056742;28;20200;-59
2023/05/14 05:21:58;;;;;;;1.20;1.10;;;;;10.30;95872.00;;;;5056449;28;20545;-59
2023/05/14 05:24:26;;;;;;;1.37;1.33;;;;;10.40;95879.00;;;;5054884;28;20254;-63
2023/05/14 05:26:54;;;;;;;0.90;0.90;;;;;10.50;95874.00;;;;5056099;28;20220;-59
2023/05/14 05:29:22;;;;;;;0.83;0.83;;;;;10.50;95882.00;;;;5056238;28;20195;-59
2023/05/14 05:31:49;;;;;;;1.33;1.23;;;;;10.50;95879.00;;;;5056279;28;20192;-59
2023/05/14 05:34:17;;;;;;;2.17;2.07;;;;;10.50;95870.00;;;;5055960;28;20188;-59
2023/05/14 05:36:44;;;;;;;1.57;1.47;;;;;10.60;95878.00;;;;5055945;28;20199;-59
2023/05/14 05:39:13;;;;;;;1.20;1.20;;;;;10.50;95879.00;;;;5054902;28;20203;-59
2023/05/14 05:41:40;;;;;;;1.37;1.27;;;;;10.50;95878.00;;;;5055873;28;20192;-59
2023/05/14 05:44:08;;;;;;;1.10;1.10;;;;;10.50;95871.00;;;;5055794;28;20192;-59
2023/05/14 05:46:36;;;;;;;1.30;1.30;;;;;10.50;95873.00;;;;5055546;28;20224;-59
2023/05/14 05:49:03;;;;;;;0.83;0.83;;;;;10.60;95878.00;;;;5054831;28;20199;-60
2023/05/14 05:51:30;;;;;;;1.60;1.37;;;;;10.40;95880.00;;;;5055918;28;20560;-59
2023/05/14 05:53:58;;;;;;;1.63;1.53;;;;;10.50;95874.00;;;;5055834;28;20605;-60
2023/05/14 05:56:26;;;;;;;1.47;1.47;;;;;10.60;95872.00;;;;5055584;28;20253;-60
2023/05/14 05:58:54;;;;;;;1.80;1.70;;;;;10.70;95883.00;;;;5055792;28;20196;-59
2023/05/14 06:01:21;;;;;;;1.30;1.30;;;;;10.70;95870.00;;;;5056027;28;20196;-59
2023/05/14 06:03:48;;;;;;;2.00;1.90;;;;;10.70;95874.00;;;;5055350;28;20212;-60
2023/05/14 06:06:16;;;;;;;1.77;1.67;;;;;10.80;95871.00;;;;5055814;28;20277;-60
2023/05/14 06:08:43;;;;;;;1.17;1.17;;;;;10.90;95867.00;;;;5054095;28;20671;-59
2023/05/14 06:11:10;;;;;;;1.47;1.47;;;;;10.90;95874.00;;;;5055263;28;20192;-60
2023/05/14 06:13:39;;;;;;;1.70;1.60;;;;;11.00;95869.00;;;;5055176;28;20220;-60
2023/05/14 06:16:07;;;;;;;1.27;1.27;;;;;11.10;95870.00;;;;5055244;28;20192;-60
2023/05/14 06:18:34;;;;;;;1.53;1.43;;;;;11.20;95868.00;;;;5055134;28;20196;-59
2023/05/14 06:21:01;;;;;;;1.93;1.80;;;;;11.10;95874.00;;;;5055128;28;20203;-59
2023/05/14 06:23:29;;;;;;;1.40;1.30;;;;;11.20;95872.00;;;;5055189;28;20215;-60
2023/05/14 06:25:56;;;;;;;1.10;1.10;;;;;11.30;95873.00;;;;5054958;28;20223;-60
2023/05/14 06:28:24;;;;;;;1.03;1.03;;;;;11.50;95877.00;;;;5053717;28;20608;-60
2023/05/14 06:30:54;;;;;;;1.67;1.57;;;;;11.80;95875.00;;;;5054918;28;20192;-60
2023/05/14 06:33:28;;;;;;;1.63;1.53;;;;;11.80;95875.00;;;;5055365;28;20212;-60
2023/05/14 06:35:56;;;;;;;2.67;2.47;;;;;11.80;95877.00;;;;5053412;28;20256;-59
2023/05/14 06:38:23;;;;;;;1.57;1.47;;;;;11.80;95866.00;;;;5053531;28;20196;-59
2023/05/14 06:40:51;;;;;;;2.30;1.47;;;;;12.00;95874.00;;;;5054944;28;20196;-59
2023/05/14 06:43:19;;;;;;;1.63;1.53;;;;;12.00;95883.00;;;;5054638;28;20707;-59
2023/05/14 06:45:49;;;;;;;1.73;1.63;;;;;12.10;95870.00;;;;5054735;28;20618;-59
2023/05/14 06:48:18;;;;;;;2.10;1.50;;;;;12.20;95879.00;;;;5054838;28;20220;-59
2023/05/14 06:50:46;;;;;;;2.37;2.17;;;;;12.30;95884.00;;;;5054549;28;20192;-59
2023/05/14 06:53:14;;;;;;;1.53;1.43;;;;;12.30;95877.00;;;;5054432;28;20238;-59
2023/05/14 06:55:42;;;;;;;1.27;1.20;;;;;12.30;95879.00;;;;5054522;28;20279;-59
2023/05/14 06:58:09;;;;;;;1.23;1.23;;;;;12.40;95886.00;;;;5053103;28;20204;-59
2023/05/14 07:00:37;;;;;;;1.60;1.50;;;;;12.20;95877.00;;;;5054289;28;20659;-60
2023/05/14 07:03:04;;;;;;;1.47;1.37;;;;;12.30;95877.00;;;;5054014;28;20231;-59
2023/05/14 07:05:33;;;;;;;1.17;1.17;;;;;12.40;95880.00;;;;5054449;28;20199;-59
2023/05/14 07:08:00;;;;;;;1.87;1.77;;;;;12.50;95877.00;;;;5054210;28;20192;-59
2023/05/14 07:10:28;;;;;;;1.83;1.73;;;;;12.50;95880.00;;;;5054440;28;20195;-59
2023/05/14 07:12:55;;;;;;;1.33;1.30;;;;;12.50;95877.00;;;;5054039;28;20222;-59
2023/05/14 07:15:22;;;;;;;2.17;2.07;;;;;12.60;95883.00;;;;5054293;28;20563;-59
2023/05/14 07:17:50;;;;;;;1.87;1.77;;;;;12.80;95876.00;;;;5053974;28;20239;-60
2023/05/14 07:20:17;;;;;;;2.50;2.03;;;;;12.80;95880.00;;;;5053970;28;20192;-60
2023/05/14 07:22:46;;;;;;;5.50;3.30;;;;;12.90;95876.00;;;;5054129;28;20216;-60
2023/05/14 07:25:13;;;;;;;2.33;2.17;;;;;13.10;95865.00;;;;5053873;28;20192;-60
2023/05/14 07:27:41;;;;;;;2.07;1.87;;;;;13.10;95867.00;;;;5053935;28;20223;-60
2023/05/14 07:30:09;;;;;;;1.73;1.63;;;;;12.90;95860.00;;;;5053762;28;20199;-60
2023/05/14 07:32:36;;;;;;;2.07;1.93;;;;;13.10;95864.00;;;;5053675;28;20220;-59
2023/05/14 07:35:05;;;;;;;1.50;1.40;;;;;13.30;95857.00;;;;5053730;28;20196;-59
2023/05/14 07:37:32;;;;;;;2.03;1.93;;;;;13.10;95856.00;;;;5053578;28;20216;-59
2023/05/14 07:40:01;;;;;;;1.73;1.63;;;;;13.30;95859.00;;;;5053638;28;20246;-59
2023/05/14 07:42:28;;;;;;;2.33;2.13;;;;;13.40;95863.00;;;;5053635;28;20226;-59
2023/05/14 07:44:56;;;;;;;1.63;1.53;;;;;13.30;95854.00;;;;5053510;28;20314;-59
2023/05/14 07:47:23;;;;;;;3.13;2.23;;;;;13.40;95861.00;;;;5053399;28;20686;-59
2023/05/14 07:49:55;;;;;;;1.50;1.50;;;;;13.50;95862.00;;;;5053501;28;20210;-59
2023/05/14 07:52:22;;;;;;;1.93;1.20;;;;;13.40;95863.00;;;;5053784;28;20307;-59
2023/05/14 07:54:51;;;;;;;1.33;1.23;;;;;13.30;95854.00;;;;5053382;28;20196;-59
2023/05/14 07:57:20;;;;;;;1.30;1.30;;;;;13.20;95858.00;;;;5053286;28;20222;-59
2023/05/14 07:59:48;;;;;;;1.53;1.43;;;;;13.10;95863.00;;;;5054028;28;20200;-59
2023/05/14 08:04:49;;;;;;;1.30;1.30;;;;;13.30;95869.00;;;;5053043;28;20223;-66
2023/05/14 08:07:17;;;;;;;1.27;1.27;;;;;13.30;95850.00;;;;5054054;28;20212;-63
2023/05/14 08:09:44;;;;;;;1.47;1.37;;;;;13.20;95860.00;;;;5053744;28;20207;-65
2023/05/14 08:12:11;;;;;;;2.67;1.90;;;;;13.20;95854.00;;;;5034926;28;20567;-65
2023/05/14 08:14:40;;;;;;;1.73;1.63;;;;;13.40;95862.00;;;;5034294;28;20220;-63
2023/05/14 08:17:07;;;;;;;2.37;1.57;;;;;13.60;95854.00;;;;5033354;28;20188;-64
2023/05/14 08:19:35;;;;;;;1.40;1.40;;;;;13.50;95859.00;;;;5033649;28;20193;-66
2023/05/14 08:22:02;;;;;;;1.17;1.17;;;;;13.60;95859.00;;;;5033221;28;20197;-64
2023/05/14 08:24:30;;;;;;;1.50;1.40;;;;;13.60;95860.00;;;;5033817;28;20232;-66
2023/05/14 08:26:57;;;;;;;0.83;0.83;;;;;13.40;95858.00;;;;5033352;28;20247;-62
2023/05/14 08:29:25;;;;;;;2.90;2.70;;;;;13.50;95861.00;;;;5033618;28;20201;-64
2023/05/14 08:31:54;;;;;;;1.13;1.13;;;;;13.40;95854.00;;;;5033147;28;20192;-65
2023/05/14 08:34:21;;;;;;;1.07;1.07;;;;;13.50;95848.00;;;;5033468;28;20213;-63
2023/05/14 08:36:49;;;;;;;2.13;1.97;;;;;13.50;95854.00;;;;5033095;28;20239;-62
2023/05/14 08:39:17;;;;;;;1.33;1.33;;;;;13.60;95857.00;;;;5033110;28;20188;-65
2023/05/14 08:41:45;;;;;;;1.40;1.30;;;;;13.80;95856.00;;;;5032998;28;20197;-64
2023/05/14 08:44:14;;;;;;;0.90;0.90;;;;;13.80;95856.00;;;;5033363;28;20597;-64
2023/05/14 08:46:41;;;;;;;2.40;2.20;;;;;14.00;95854.00;;;;5032998;28;20227;-63
2023/05/14 08:49:21;;;;;;;2.07;1.97;;;;;14.00;95855.00;;;;5033069;28;20203;-64
2023/05/14 08:51:49;;;;;;;1.60;1.50;;;;;14.10;95845.00;;;;5033169;28;20518;-64
2023/05/14 08:54:17;;;;;;;2.00;1.57;;;;;14.30;95850.00;;;;5033447;28;20284;-63
2023/05/14 08:56:45;;;;;;;1.63;1.53;;;;;14.50;95843.00;;;;5032942;28;20196;-64
2023/05/14 08:59:13;;;;;;;2.50;2.30;;;;;14.60;95842.00;;;;5015244;28;20271;-63
2023/05/14 09:01:46;;;;;;;1.97;1.87;;;;;14.70;95836.00;;;;5032838;28;20243;-65
2023/05/14 09:04:19;;;;;;;1.50;1.40;;;;;15.00;95838.00;;;;5033151;28;20231;-63
2023/05/14 09:06:50;;;;;;;4.00;1.30;;;;;15.10;95842.00;;;;5033124;28;20201;-63
2023/05/14 09:09:17;;;;;;;1.43;1.40;;;;;15.30;95821.00;;;;5033287;28;20520;-64
2023/05/14 09:11:47;;;;;;;1.63;1.53;;;;;15.60;95822.00;;;;5032806;28;20193;-65
2023/05/14 09:14:14;;;;;;;0.87;0.87;;;;;15.80;95827.00;;;;5032678;28;20691;-65
2023/05/14 09:16:44;;;;;;;1.53;1.43;;;;;16.10;95824.00;;;;5033961;28;20201;-63
2023/05/14 09:19:14;;;;;;;1.20;1.20;;;;;16.30;95826.00;;;;5032797;28;20251;-65
2023/05/14 09:21:44;;;;;;;1.00;1.00;;;;;16.40;95818.00;;;;5032806;28;20251;-64
2023/05/14 09:24:20;;;;;;;1.20;1.20;;;;;16.60;95833.00;;;;5034663;28;20213;-65
2023/05/14 09:26:51;;;;;;;2.43;2.13;;;;;16.50;95834.00;;;;5036820;28;20208;-63
2023/05/14 09:29:19;;;;;;;2.83;1.27;;;;;16.60;95826.00;;;;5036594;28;20235;-63
2023/05/14 09:31:46;;;;;;;2.17;1.70;;;;;16.70;95823.00;;;;5036127;28;20197;-64
2023/05/14 09:34:24;;;;;;;1.47;1.37;;;;;16.70;95818.00;;;;5036016;28;20308;-65
2023/05/14 09:36:56;;;;;;;2.20;2.10;;;;;16.70;95810.00;;;;5036140;28;20184;-63
2023/05/14 09:39:24;;;;;;;1.50;1.43;;;;;17.10;95816.00;;;;5036326;28;20185;-63
2023/05/14 09:41:52;;;;;;;1.80;1.70;;;;;17.10;95815.00;;;;5036608;28;20199;-64
2023/05/14 09:44:19;;;;;;;1.17;1.17;;;;;17.40;95811.00;;;;5035901;28;20223;-65
2023/05/14 09:46:47;;;;;;;1.23;1.23;;;;;17.40;95812.00;;;;5036671;28;20291;-62
2023/05/14 09:49:16;;;;;;;0.83;0.83;;;;;17.60;95813.00;;;;5036227;28;20604;-64
2023/05/14 09:51:44;;;;;;;1.67;1.57;;;;;17.50;95814.00;;;;5036703;28;20197;-64
2023/05/14 09:54:11;;;;;;;0.73;0.73;;;;;17.50;95809.00;;;;5035679;28;20252;-65
2023/05/14 09:56:39;;;;;;;0.90;0.90;;;;;17.60;95811.00;;;;5035652;28;20192;-64
2023/05/14 09:59:07;;;;;;;1.13;1.13;;;;;17.50;95799.00;;;;5035587;28;20287;-65
2023/05/14 10:01:34;;;;;;;1.50;1.40;;;;;17.50;95806.00;;;;5035553;28;20212;-64
2023/05/14 10:04:06;;;;;;;1.07;1.07;;;;;17.50;95810.00;;;;5035426;28;20216;-65
2023/05/14 10:06:37;;;;;;;1.17;1.17;;;;;17.60;95797.00;;;;5036172;28;20181;-64
2023/05/14 10:09:11;;;;;;;1.27;1.20;;;;;17.60;95808.00;;;;5035700;28;20522;-63
2023/05/14 10:11:45;;;;;;;1.57;1.47;;;;;17.60;95802.00;;;;5036130;28;20185;-64
2023/05/14 10:14:18;;;;;;;1.63;1.53;;;;;17.80;95793.00;;;;5035386;28;20218;-64
2023/05/14 10:16:49;;;;;;;1.10;1.10;;;;;18.10;95805.00;;;;5036032;28;20185;-63
2023/05/14 10:19:17;;;;;;;1.53;1.43;;;;;18.20;95789.00;;;;5035479;28;20188;-65
2023/05/14 10:21:52;;;;;;;1.17;1.13;;;;;18.40;95796.00;;;;5017543;28;20671;-65
2023/05/14 10:24:21;;;;;;;1.60;1.50;;;;;18.50;95795.00;;;;5035153;28;20721;-66
2023/05/14 10:26:49;;;;;;;0.80;0.80;;;;;18.10;95807.00;;;;5036009;28;20591;-65
2023/05/14 10:29:16;;;;;;;1.40;1.30;;;;;17.70;95806.00;;;;5035155;28;20196;-65
2023/05/14 10:31:48;;;;;;;1.23;1.23;;;;;17.60;95804.00;;;;5035490;28;20204;-65
2023/05/14 10:34:41;;;;;;;1.17;1.17;;;;;17.60;95806.00;;;;5034810;28;20219;-65
2023/05/14 10:37:11;;;;;;;2.30;2.07;;;;;17.40;95801.00;;;;5036331;28;20181;-65
2023/05/14 10:39:44;;;;;;;3.53;2.30;;;;;17.50;95805.00;;;;5034894;28;20239;-64
2023/05/14 10:42:16;;;;;;;2.83;2.63;;;;;17.70;95798.00;;;;5034805;28;20215;-65
2023/05/14 10:44:54;;;;;;;1.73;1.63;;;;;17.60;95801.00;;;;5017854;28;20203;-65
2023/05/14 10:47:22;;;;;;;1.13;1.13;;;;;17.50;95791.00;;;;5035280;28;20201;-65
2023/05/14 10:49:50;;;;;;;0.87;0.87;;;;;17.90;95781.00;;;;5034713;28;20189;-65
2023/05/14 10:52:20;;;;;;;1.10;1.10;;;;;18.60;95781.00;;;;5034547;28;20197;-66
2023/05/14 10:54:50;;;;;;;1.67;1.57;;;;;18.60;95785.00;;;;5034867;28;20205;-64
2023/05/14 10:57:19;;;;;;;0.90;0.90;;;;;18.70;95781.00;;;;5035108;28;20177;-64
2023/05/14 10:59:48;;;;;;;0.90;0.90;;;;;18.50;95790.00;;;;5034589;28;20361;-65
2023/05/14 11:02:24;;;;;;;1.80;1.70;;;;;17.80;95783.00;;;;5034658;28;20219;-65
2023/05/14 11:05:02;;;;;;;0.90;0.90;;;;;17.20;95788.00;;;;5034469;28;20184;-65
2023/05/14 11:07:33;;;;;;;1.00;1.00;;;;;17.20;95783.00;;;;5035192;28;20212;-61
2023/05/14 11:10:03;;;;;;;1.03;0.97;;;;;17.10;95777.00;;;;5035316;28;20181;-63
2023/05/14 11:12:30;;;;;;;0.70;0.70;;;;;16.80;95779.00;;;;5035146;28;20619;-65
2023/05/14 11:14:59;;;;;;;1.20;1.10;;;;;16.50;95778.00;;;;5034741;28;20685;-65
2023/05/14 11:17:27;;;;;;;1.23;1.23;;;;;16.40;95777.00;;;;5034816;28;20189;-62
2023/05/14 11:19:56;;;;;;;1.40;1.30;;;;;16.20;95783.00;;;;5035526;28;20200;-64
2023/05/14 11:22:24;;;;;;;1.90;1.33;;;;;16.10;95775.00;;;;5035200;28;20195;-65
2023/05/14 11:24:52;;;;;;;3.90;2.03;;;;;16.20;95772.00;;;;5033977;28;20667;-65
2023/05/14 11:27:21;;;;;;;1.40;1.40;;;;;16.20;95772.00;;;;5034185;28;20286;-65
2023/05/14 11:29:49;;;;;;;2.43;1.70;;;;;16.10;95768.00;;;;5034840;28;20200;-63
2023/05/14 11:32:18;;;;;;;1.00;1.00;;;;;15.80;95759.00;;;;5034466;28;20268;-63
2023/05/14 11:34:46;;;;;;;1.43;1.33;;;;;15.80;95761.00;;;;5033947;28;20189;-65
2023/05/14 11:37:15;;;;;;;0.90;0.90;;;;;15.80;95767.00;;;;5033623;28;20664;-65
2023/05/14 11:39:47;;;;;;;1.13;1.13;;;;;16.10;95758.00;;;;5034550;28;20694;-62
2023/05/14 11:42:18;;;;;;;2.23;1.53;;;;;16.10;95750.00;;;;5033812;28;20174;-64
2023/05/14 11:44:47;;;;;;;3.07;1.17;;;;;16.30;95724.00;;;;5034051;28;20185;-65
2023/05/14 11:47:15;;;;;;;1.73;1.63;;;;;17.30;95711.00;;;;5032938;28;20227;-65
2023/05/14 11:49:43;;;;;;;1.00;1.00;;;;;18.00;95722.00;;;;5034422;28;20193;-64
2023/05/14 11:52:13;;;;;;;1.63;1.53;;;;;18.40;95739.00;;;;5033831;28;20200;-63
2023/05/14 11:54:42;;;;;;;1.00;1.00;;;;;18.30;95747.00;;;;5033895;28;20196;-65
2023/05/14 11:57:11;;;;;;;1.00;1.00;;;;;18.10;95754.00;;;;5033561;28;20200;-65
2023/05/14 11:59:40;;;;;;;1.17;1.17;;;;;18.00;95751.00;;;;5034104;28;20208;-63
2023/05/14 12:02:11;;;;;;;0.80;0.80;;;;;17.80;95751.00;;;;5016014;28;20224;-63
2023/05/14 12:04:39;;;;;;;1.00;1.00;;;;;17.60;95753.00;;;;5033795;28;20586;-64
2023/05/14 12:07:11;;;;;;;1.20;1.20;;;;;17.20;95750.00;;;;5033614;28;20432;-65
2023/05/14 12:09:40;;;;;;;1.13;1.13;;;;;17.00;95761.00;;;;5034088;28;20180;-64
2023/05/14 12:12:12;;;;;;;1.37;1.27;;;;;16.70;95747.00;;;;5033496;28;20233;-61
2023/05/14 12:14:42;;;;;;;1.07;1.07;;;;;16.60;95746.00;;;;5033576;28;20660;-65
2023/05/14 12:17:15;;;;;;;0.93;0.93;;;;;16.50;95746.00;;;;5033260;28;20188;-65
2023/05/14 12:19:43;;;;;;;1.67;1.57;;;;;16.40;95738.00;;;;5034433;28;20211;-64
2023/05/14 12:22:11;;;;;;;1.50;1.47;;;;;16.30;95745.00;;;;5033531;28;20188;-63
2023/05/14 12:24:39;;;;;;;1.57;1.50;;;;;16.30;95727.00;;;;5033439;28;20674;-65
2023/05/14 12:27:09;;;;;;;1.30;1.20;;;;;16.20;95734.00;;;;5033306;28;20197;-64
2023/05/14 12:29:38;;;;;;;1.87;1.63;;;;;16.60;95724.00;;;;5033247;28;20212;-65